Skip Navigation Links
NOAA logo - Click to go to the NOAA homepage
NOAA's National Weather Service
Alaska Aviation Weather Unit
  NWS logo - Click to go to the NWS homepage
Left Navbar Graphic     21 AKDT = 05 GMT

   
NOAA is celebrating 200 years of science, service, and stewardship. Visit the NOAA 200th celebration Web site to learn more.
USA.gov is the U.S. Government's official Web portal to all Federal, state and local government Web resources and services.
Facebook
NWS on Facebook

AAWU Home :: Display TAF Add Bookmark
METAR PALU 262355Z AUTO 09017KT 10SM FEW015 M11/M14 A2986=

METAR PALU 270055Z AUTO 10015KT 10SM FEW014 M10/M14 A2985=

PALU 270149Z AUTO 09016KT 10SM -SHSN SCT013 M10/M14 A2985=

METAR PALU 270155Z AUTO 10015KT 10SM -SHSN SCT010 M10/M14 A2985=

PALU 270209Z AUTO 09014KT 040V110 10SM -SHSN BKN009 M10/M14 A2985=

METAR PALU 270255Z AUTO 09014KT 10SM -SHSN BKN009 M10/M14 A2985=

METAR PALU 270355Z AUTO 11014KT 10SM -SHSN BKN010 M11/M14 A2985=

PALU 270410Z AUTO 10014KT 10SM -SHSN SCT010 M11/M14 A2985=

PALU 270430Z AUTO 10014KT 040V110 10SM -SHSN BKN008 M11/M14 A2985=


NOAA's National Weather Service
Alaska Aviation Weather Unit
6930 Sand Lake Road
Anchorage, AK 99502-1845
Disclaimer
Credits
Glossary
Privacy Policy
About Us
Career Opportunities
Contact AAWU Internet Services Site last modified: April, 17th 2012